SWR35G LSZH-KSFO
Flight info
| Callsign | SWR35G |
|---|---|
| Flight time | N/A |
| Altitude | 34000 |
| Route | VEBIT T10 TORPA DCT REKLA DCT RLP DCT ROTSI DCT KOTUN DCT AMAXA DCT VESAN DCT RATUK DCT SOVAT L613 SANDY DCT OKSAW DCT TEWXI DCT LIPGO DCT RESNO/M082F360 NATA JANJO/N0460F380 DCT JOVIE DCT DUSMA DCT YRL DCT MOT/N0476F400 DCT SWTHN Q121 PARZZ Q138 FIMUV DCT LEGGS BDEGA4 |
| Aircraft | A339/H-SADE1E2E3GHIJ3J5M1P2RWXY/LB2D1 |
Departure
| Time | 2026-04-26 11:40 |
|---|---|
| Airport | Zürich Airport (LSZH) |
Arrival
| Time | N/A |
|---|---|
| Airport | San Francisco International Airport (KSFO) |
| Time | Latitude | Longitude | Altitude | Speed | Heading |
|---|---|---|---|---|---|
| 2026-04-26 10:43 | 47.46026 | 8.55733 | 1393 ft | 0 kts | 6° |
| 2026-04-26 11:27 | 47.46022 | 8.55732 | 1393 ft | 2 kts | 2° |
| 2026-04-26 11:27 | 47.46013 | 8.55732 | 1393 ft | 1 kts | 358° |
| 2026-04-26 11:27 | 47.45998 | 8.55733 | 1393 ft | 2 kts | 354° |
| 2026-04-26 11:27 | 47.45983 | 8.55738 | 1393 ft | 2 kts | 339° |
| 2026-04-26 11:28 | 47.45970 | 8.55747 | 1393 ft | 2 kts | 326° |
| 2026-04-26 11:28 | 47.45959 | 8.55761 | 1393 ft | 2 kts | 313° |
| 2026-04-26 11:28 | 47.45950 | 8.55778 | 1393 ft | 2 kts | 300° |
| 2026-04-26 11:28 | 47.45945 | 8.55797 | 1393 ft | 2 kts | 287° |
| 2026-04-26 11:29 | 47.45942 | 8.55814 | 1393 ft | 0 kts | 276° |
| 2026-04-26 11:29 | 47.45941 | 8.55820 | 1393 ft | 0 kts | 275° |
| 2026-04-26 11:31 | 47.45942 | 8.55806 | 1393 ft | 3 kts | 275° |
| 2026-04-26 11:32 | 47.45948 | 8.55732 | 1393 ft | 9 kts | 277° |
| 2026-04-26 11:32 | 47.45954 | 8.55645 | 1393 ft | 10 kts | 276° |
| 2026-04-26 11:32 | 47.45964 | 8.55508 | 1393 ft | 15 kts | 276° |
| 2026-04-26 11:32 | 47.45976 | 8.55350 | 1393 ft | 15 kts | 275° |
| 2026-04-26 11:33 | 47.45985 | 8.55189 | 1393 ft | 15 kts | 276° |
| 2026-04-26 11:33 | 47.45996 | 8.55030 | 1393 ft | 15 kts | 276° |
| 2026-04-26 11:33 | 47.46051 | 8.54915 | 1392 ft | 14 kts | 334° |
| 2026-04-26 11:33 | 47.46150 | 8.54849 | 1390 ft | 16 kts | 336° |
| 2026-04-26 11:34 | 47.46255 | 8.54776 | 1390 ft | 16 kts | 335° |
| 2026-04-26 11:34 | 47.46355 | 8.54709 | 1391 ft | 15 kts | 336° |
| 2026-04-26 11:34 | 47.46452 | 8.54639 | 1391 ft | 15 kts | 335° |
| 2026-04-26 11:34 | 47.46554 | 8.54569 | 1390 ft | 16 kts | 335° |
| 2026-04-26 11:35 | 47.46655 | 8.54502 | 1390 ft | 15 kts | 336° |
| 2026-04-26 11:35 | 47.46756 | 8.54437 | 1390 ft | 15 kts | 337° |
| 2026-04-26 11:35 | 47.46858 | 8.54375 | 1390 ft | 15 kts | 338° |
| 2026-04-26 11:35 | 47.46957 | 8.54309 | 1390 ft | 15 kts | 334° |
| 2026-04-26 11:36 | 47.47059 | 8.54238 | 1390 ft | 16 kts | 335° |
| 2026-04-26 11:36 | 47.47166 | 8.54167 | 1390 ft | 16 kts | 336° |
| 2026-04-26 11:36 | 47.47270 | 8.54093 | 1390 ft | 16 kts | 334° |
| 2026-04-26 11:36 | 47.47372 | 8.54022 | 1390 ft | 15 kts | 335° |
| 2026-04-26 11:37 | 47.47465 | 8.53959 | 1392 ft | 14 kts | 335° |
| 2026-04-26 11:37 | 47.47548 | 8.53900 | 1394 ft | 11 kts | 335° |
| 2026-04-26 11:37 | 47.47598 | 8.53822 | 1395 ft | 10 kts | 290° |
| 2026-04-26 11:37 | 47.47594 | 8.53725 | 1396 ft | 9 kts | 251° |
| 2026-04-26 11:38 | 47.47568 | 8.53643 | 1396 ft | 5 kts | 238° |
| 2026-04-26 11:38 | 47.47540 | 8.53622 | 1396 ft | 1 kts | 172° |
| 2026-04-26 11:38 | 47.47535 | 8.53624 | 1396 ft | 2 kts | 166° |
| 2026-04-26 11:38 | 47.47524 | 8.53630 | 1396 ft | 0 kts | 157° |
| 2026-04-26 11:39 | 47.47522 | 8.53631 | 1396 ft | 5 kts | 157° |
| 2026-04-26 11:39 | 47.47289 | 8.53791 | 1390 ft | 69 kts | 155° |
| 2026-04-26 11:40 | 47.46669 | 8.54221 | 1390 ft | 124 kts | 155° |
| 2026-04-26 11:40 | 47.45747 | 8.54854 | 1394 ft | 169 kts | 155° |
| 2026-04-26 11:40 | 47.44570 | 8.55652 | 1535 ft | 196 kts | 155° |
| 2026-04-26 11:40 | 47.43306 | 8.56409 | 2037 ft | 198 kts | 156° |
| 2026-04-26 11:41 | 47.42039 | 8.57268 | 2580 ft | 199 kts | 144° |
| 2026-04-26 11:42 | 47.45923 | 8.62308 | 4904 ft | 259 kts | 298° |
| 2026-04-26 11:43 | 47.46491 | 8.59769 | 5308 ft | 269 kts | 281° |
| 2026-04-26 11:43 | 47.46454 | 8.56966 | 5727 ft | 279 kts | 256° |
| 2026-04-26 11:43 | 47.45805 | 8.54281 | 6355 ft | 278 kts | 254° |
| 2026-04-26 11:43 | 47.45422 | 8.51503 | 6889 ft | 281 kts | 263° |
| 2026-04-26 11:44 | 47.45184 | 8.48628 | 7403 ft | 284 kts | 262° |
| 2026-04-26 11:44 | 47.44510 | 8.45869 | 7932 ft | 288 kts | 238° |
| 2026-04-26 11:44 | 47.43363 | 8.43482 | 8510 ft | 289 kts | 233° |
| 2026-04-26 11:44 | 47.42145 | 8.41149 | 9057 ft | 291 kts | 233° |
| 2026-04-26 11:45 | 47.40942 | 8.38754 | 9596 ft | 293 kts | 235° |
| 2026-04-26 11:45 | 47.39766 | 8.36313 | 10138 ft | 294 kts | 236° |
| 2026-04-26 11:45 | 47.38663 | 8.33751 | 10581 ft | 300 kts | 240° |
| 2026-04-26 11:45 | 47.37647 | 8.30975 | 10802 ft | 313 kts | 242° |
| 2026-04-26 11:46 | 47.36612 | 8.28055 | 11025 ft | 327 kts | 243° |
| 2026-04-26 11:46 | 47.35550 | 8.25055 | 11251 ft | 340 kts | 243° |
| 2026-04-26 11:46 | 47.34433 | 8.21902 | 11572 ft | 349 kts | 243° |
| 2026-04-26 11:46 | 47.33315 | 8.18758 | 12098 ft | 352 kts | 243° |
| 2026-04-26 11:47 | 47.32164 | 8.15529 | 12675 ft | 354 kts | 243° |
| 2026-04-26 11:47 | 47.31033 | 8.12350 | 13234 ft | 355 kts | 243° |
| 2026-04-26 11:47 | 47.29886 | 8.09124 | 13788 ft | 357 kts | 243° |
| 2026-04-26 11:47 | 47.28724 | 8.05859 | 14334 ft | 359 kts | 243° |
| 2026-04-26 11:48 | 47.27659 | 8.02584 | 14853 ft | 361 kts | 252° |
| 2026-04-26 11:48 | 47.27160 | 7.98977 | 15370 ft | 362 kts | 267° |
| 2026-04-26 11:48 | 47.27300 | 7.95257 | 15904 ft | 362 kts | 278° |
| 2026-04-26 11:48 | 47.27664 | 7.91607 | 16430 ft | 364 kts | 279° |
| 2026-04-26 11:49 | 47.28045 | 7.87892 | 16950 ft | 367 kts | 279° |
| 2026-04-26 11:49 | 47.28420 | 7.84152 | 17470 ft | 368 kts | 279° |
| 2026-04-26 11:49 | 47.28781 | 7.80461 | 17983 ft | 370 kts | 278° |
| 2026-04-26 11:49 | 47.29144 | 7.76677 | 18484 ft | 373 kts | 278° |
| 2026-04-26 11:50 | 47.29504 | 7.72886 | 18984 ft | 375 kts | 278° |
| 2026-04-26 11:50 | 47.29867 | 7.69050 | 19480 ft | 378 kts | 278° |
| 2026-04-26 11:50 | 47.30277 | 7.65250 | 19952 ft | 380 kts | 281° |
| 2026-04-26 11:50 | 47.30849 | 7.61441 | 20432 ft | 382 kts | 284° |
| 2026-04-26 11:51 | 47.31583 | 7.57670 | 20892 ft | 385 kts | 287° |
| 2026-04-26 11:51 | 47.32392 | 7.53926 | 21353 ft | 387 kts | 288° |
| 2026-04-26 11:51 | 47.33215 | 7.50155 | 21793 ft | 389 kts | 288° |
| 2026-04-26 11:51 | 47.34046 | 7.46347 | 22218 ft | 392 kts | 288° |
| 2026-04-26 11:52 | 47.34881 | 7.42509 | 22643 ft | 394 kts | 288° |
| 2026-04-26 11:52 | 47.35722 | 7.38628 | 23053 ft | 396 kts | 287° |
| 2026-04-26 11:52 | 47.36551 | 7.34795 | 23451 ft | 398 kts | 287° |
| 2026-04-26 11:52 | 47.37396 | 7.30877 | 23837 ft | 400 kts | 287° |
| 2026-04-26 11:53 | 47.38241 | 7.26947 | 24228 ft | 402 kts | 287° |
| 2026-04-26 11:53 | 47.39081 | 7.23034 | 24607 ft | 404 kts | 287° |
| 2026-04-26 11:53 | 47.39926 | 7.19090 | 24980 ft | 406 kts | 287° |
| 2026-04-26 11:54 | 47.41363 | 7.11042 | 25676 ft | 410 kts | 282° |
| 2026-04-26 11:54 | 47.41974 | 7.06926 | 26016 ft | 412 kts | 282° |
| 2026-04-26 11:54 | 47.42583 | 7.02767 | 26345 ft | 413 kts | 282° |
| 2026-04-26 11:54 | 47.43182 | 6.98665 | 26650 ft | 416 kts | 282° |
| 2026-04-26 11:55 | 47.43792 | 6.94486 | 26964 ft | 417 kts | 282° |
| 2026-04-26 11:55 | 47.44405 | 6.90283 | 27276 ft | 419 kts | 282° |
| 2026-04-26 11:55 | 47.45015 | 6.86093 | 27570 ft | 421 kts | 282° |
| 2026-04-26 11:55 | 47.45628 | 6.81858 | 27858 ft | 422 kts | 282° |
| 2026-04-26 11:56 | 47.46242 | 6.77611 | 28143 ft | 424 kts | 282° |
| 2026-04-26 11:56 | 47.46859 | 6.73335 | 28428 ft | 426 kts | 282° |
| 2026-04-26 11:56 | 47.47465 | 6.69110 | 28692 ft | 427 kts | 281° |
| 2026-04-26 11:56 | 47.47971 | 6.64796 | 28959 ft | 429 kts | 278° |
| 2026-04-26 11:57 | 47.48331 | 6.60385 | 29247 ft | 430 kts | 276° |
| 2026-04-26 11:57 | 47.48652 | 6.56002 | 29504 ft | 432 kts | 276° |
| 2026-04-26 11:57 | 47.48965 | 6.51617 | 29736 ft | 434 kts | 276° |
| 2026-04-26 11:57 | 47.49283 | 6.47164 | 29972 ft | 435 kts | 276° |
| 2026-04-26 11:58 | 47.49598 | 6.42706 | 30228 ft | 437 kts | 276° |
| 2026-04-26 11:58 | 47.49912 | 6.38267 | 30473 ft | 438 kts | 276° |
| 2026-04-26 11:58 | 47.50227 | 6.33786 | 30702 ft | 439 kts | 276° |
| 2026-04-26 11:58 | 47.50542 | 6.29285 | 30923 ft | 441 kts | 276° |
| 2026-04-26 11:59 | 47.50854 | 6.24815 | 31134 ft | 443 kts | 276° |
| 2026-04-26 11:59 | 47.51171 | 6.20252 | 31346 ft | 444 kts | 276° |
| 2026-04-26 11:59 | 47.51479 | 6.15779 | 31615 ft | 444 kts | 276° |
| 2026-04-26 11:59 | 47.51791 | 6.11220 | 31941 ft | 443 kts | 276° |
| 2026-04-26 12:00 | 47.52098 | 6.06724 | 32239 ft | 443 kts | 276° |
| 2026-04-26 12:00 | 47.52403 | 6.02200 | 32506 ft | 443 kts | 276° |
| 2026-04-26 12:00 | 47.52763 | 5.97671 | 32732 ft | 443 kts | 280° |
| 2026-04-26 12:00 | 47.53393 | 5.93239 | 32930 ft | 443 kts | 285° |
| 2026-04-26 12:01 | 47.54323 | 5.88886 | 33140 ft | 444 kts | 291° |
| 2026-04-26 12:01 | 47.55529 | 5.84710 | 33343 ft | 444 kts | 296° |
| 2026-04-26 12:01 | 47.57005 | 5.80724 | 33536 ft | 445 kts | 302° |
| 2026-04-26 12:01 | 47.58765 | 5.76916 | 33729 ft | 446 kts | 307° |
| 2026-04-26 12:02 | 47.60733 | 5.73425 | 33920 ft | 447 kts | 311° |
| 2026-04-26 12:02 | 47.62813 | 5.70034 | 34121 ft | 447 kts | 312° |
| 2026-04-26 12:02 | 47.64942 | 5.66615 | 34180 ft | 448 kts | 312° |
| 2026-04-26 12:03 | 47.69161 | 5.59838 | 34188 ft | 448 kts | 313° |
| 2026-04-26 12:03 | 47.73365 | 5.53047 | 34191 ft | 447 kts | 313° |
| 2026-04-26 12:04 | 47.77538 | 5.46279 | 34196 ft | 446 kts | 313° |
| 2026-04-26 12:04 | 47.81724 | 5.39467 | 34198 ft | 446 kts | 313° |
| 2026-04-26 12:05 | 47.85882 | 5.32685 | 34201 ft | 445 kts | 312° |
| 2026-04-26 12:05 | 47.90052 | 5.25861 | 34201 ft | 445 kts | 312° |
| 2026-04-26 12:06 | 47.94192 | 5.19066 | 34203 ft | 445 kts | 312° |
| 2026-04-26 12:06 | 47.98327 | 5.12255 | 34206 ft | 444 kts | 312° |
| 2026-04-26 12:07 | 48.02461 | 5.05431 | 34209 ft | 444 kts | 312° |
| 2026-04-26 12:07 | 48.06588 | 4.98598 | 34206 ft | 443 kts | 312° |
| 2026-04-26 12:08 | 48.10707 | 4.91761 | 34211 ft | 443 kts | 312° |
| 2026-04-26 12:08 | 48.14856 | 4.84858 | 34214 ft | 443 kts | 312° |
| 2026-04-26 12:09 | 48.18956 | 4.78018 | 34218 ft | 442 kts | 312° |
| 2026-04-26 12:09 | 48.23067 | 4.71142 | 34217 ft | 442 kts | 312° |
| 2026-04-26 12:10 | 48.27126 | 4.64332 | 34222 ft | 441 kts | 312° |
| 2026-04-26 12:10 | 48.31225 | 4.57442 | 34221 ft | 441 kts | 312° |
| 2026-04-26 12:11 | 48.35273 | 4.50617 | 34222 ft | 441 kts | 312° |
| 2026-04-26 12:11 | 48.39363 | 4.43703 | 34227 ft | 440 kts | 313° |
| 2026-04-26 12:12 | 48.43389 | 4.36880 | 34230 ft | 440 kts | 313° |
| 2026-04-26 12:12 | 48.47396 | 4.30071 | 34232 ft | 439 kts | 312° |
| 2026-04-26 12:13 | 48.51424 | 4.23211 | 34233 ft | 439 kts | 312° |
| 2026-04-26 12:13 | 48.55474 | 4.16294 | 34234 ft | 439 kts | 312° |
| 2026-04-26 12:14 | 48.59494 | 4.09410 | 34242 ft | 438 kts | 312° |
| 2026-04-26 12:14 | 48.63508 | 4.02519 | 34245 ft | 438 kts | 312° |
| 2026-04-26 12:15 | 48.67508 | 3.95633 | 34245 ft | 437 kts | 312° |
| 2026-04-26 12:15 | 48.71693 | 3.88988 | 34244 ft | 437 kts | 317° |
| 2026-04-26 12:16 | 48.76257 | 3.83034 | 34244 ft | 436 kts | 322° |
| 2026-04-26 12:16 | 48.81135 | 3.77593 | 34246 ft | 436 kts | 324° |
| 2026-04-26 12:17 | 48.86046 | 3.72227 | 34250 ft | 436 kts | 324° |
| 2026-04-26 12:17 | 48.90952 | 3.66852 | 34254 ft | 436 kts | 324° |
| 2026-04-26 12:18 | 48.95858 | 3.61461 | 34252 ft | 436 kts | 324° |
| 2026-04-26 12:18 | 49.00766 | 3.56052 | 34255 ft | 436 kts | 324° |
| 2026-04-26 12:19 | 49.05675 | 3.50629 | 34257 ft | 436 kts | 324° |
| 2026-04-26 12:19 | 49.10597 | 3.45179 | 34260 ft | 436 kts | 324° |
| 2026-04-26 12:20 | 49.15515 | 3.39717 | 34259 ft | 436 kts | 324° |
| 2026-04-26 12:20 | 49.20399 | 3.34281 | 34261 ft | 436 kts | 323° |
| 2026-04-26 12:21 | 49.25309 | 3.28802 | 34262 ft | 436 kts | 323° |
| 2026-04-26 12:21 | 49.30215 | 3.23311 | 34264 ft | 436 kts | 323° |
| 2026-04-26 12:22 | 49.35107 | 3.17825 | 34265 ft | 436 kts | 323° |
| 2026-04-26 12:22 | 49.39979 | 3.12347 | 34265 ft | 436 kts | 323° |
| 2026-04-26 12:23 | 49.44857 | 3.06847 | 34264 ft | 436 kts | 323° |
| 2026-04-26 12:23 | 49.49752 | 3.01316 | 34265 ft | 436 kts | 323° |
| 2026-04-26 12:24 | 49.54616 | 2.95805 | 34265 ft | 436 kts | 323° |
| 2026-04-26 12:24 | 49.59493 | 2.90266 | 34266 ft | 436 kts | 323° |
| 2026-04-26 12:25 | 49.66798 | 2.81939 | 34267 ft | 435 kts | 323° |
| 2026-04-26 12:25 | 49.71675 | 2.76367 | 34267 ft | 435 kts | 323° |
| 2026-04-26 12:26 | 49.76525 | 2.70807 | 34271 ft | 435 kts | 323° |
| 2026-04-26 12:26 | 49.81399 | 2.65335 | 34273 ft | 435 kts | 324° |
| 2026-04-26 12:27 | 49.86335 | 2.59881 | 34275 ft | 435 kts | 324° |
| 2026-04-26 12:27 | 49.91227 | 2.54450 | 34278 ft | 435 kts | 324° |
| 2026-04-26 12:28 | 49.96122 | 2.48996 | 34277 ft | 434 kts | 324° |
| 2026-04-26 12:28 | 50.01052 | 2.43486 | 34276 ft | 434 kts | 324° |
| 2026-04-26 12:29 | 50.05932 | 2.38018 | 34280 ft | 435 kts | 324° |
| 2026-04-26 12:30 | 50.13286 | 2.29747 | 34282 ft | 435 kts | 323° |
| 2026-04-26 12:30 | 50.18101 | 2.24314 | 34288 ft | 435 kts | 323° |
| 2026-04-26 12:31 | 50.25433 | 2.16018 | 34292 ft | 435 kts | 323° |
| 2026-04-26 12:31 | 50.30320 | 2.10468 | 34297 ft | 435 kts | 323° |
| 2026-04-26 12:32 | 50.35197 | 2.04916 | 34301 ft | 435 kts | 322° |
| 2026-04-26 12:33 | 50.42189 | 1.95869 | 34302 ft | 435 kts | 318° |
| 2026-04-26 12:33 | 50.46737 | 1.89659 | 34300 ft | 435 kts | 318° |
| 2026-04-26 12:34 | 50.51278 | 1.83450 | 34312 ft | 435 kts | 318° |
| 2026-04-26 12:34 | 50.55827 | 1.77216 | 34307 ft | 436 kts | 318° |
| 2026-04-26 12:35 | 50.60410 | 1.70920 | 34314 ft | 435 kts | 318° |
| 2026-04-26 12:35 | 50.64928 | 1.64696 | 34317 ft | 436 kts | 318° |
| 2026-04-26 12:36 | 50.69493 | 1.58390 | 34315 ft | 436 kts | 318° |
| 2026-04-26 12:36 | 50.74046 | 1.52076 | 34318 ft | 436 kts | 318° |
| 2026-04-26 12:37 | 50.78583 | 1.45768 | 34320 ft | 436 kts | 318° |
| 2026-04-26 12:37 | 50.83135 | 1.39433 | 34322 ft | 437 kts | 318° |
| 2026-04-26 12:38 | 50.87676 | 1.33096 | 34328 ft | 436 kts | 317° |
| 2026-04-26 12:38 | 50.92224 | 1.26729 | 34329 ft | 437 kts | 317° |
| 2026-04-26 12:39 | 50.96757 | 1.20364 | 34329 ft | 436 kts | 317° |
| 2026-04-26 12:39 | 51.01163 | 1.13804 | 34332 ft | 436 kts | 312° |
| 2026-04-26 12:40 | 51.05009 | 1.06383 | 34332 ft | 435 kts | 305° |
| 2026-04-26 12:40 | 51.08163 | 0.98265 | 34332 ft | 434 kts | 297° |
| 2026-04-26 12:41 | 51.10632 | 0.89499 | 34333 ft | 435 kts | 292° |
| 2026-04-26 12:41 | 51.12795 | 0.80715 | 34329 ft | 434 kts | 291° |
| 2026-04-26 12:42 | 51.14991 | 0.71711 | 34327 ft | 434 kts | 291° |
| 2026-04-26 12:42 | 51.17155 | 0.62812 | 34324 ft | 434 kts | 291° |
| 2026-04-26 12:43 | 51.19332 | 0.53825 | 34321 ft | 434 kts | 291° |
| 2026-04-26 12:43 | 51.21493 | 0.44872 | 34324 ft | 434 kts | 291° |
| 2026-04-26 12:44 | 51.23646 | 0.35914 | 34323 ft | 435 kts | 291° |
| 2026-04-26 12:44 | 51.25809 | 0.26872 | 34324 ft | 435 kts | 290° |
| 2026-04-26 12:45 | 51.27951 | 0.17888 | 34326 ft | 435 kts | 290° |
| 2026-04-26 12:45 | 51.30097 | 0.08853 | 34324 ft | 435 kts | 290° |
| 2026-04-26 12:46 | 51.32229 | -0.00166 | 34325 ft | 435 kts | 290° |
| 2026-04-26 12:46 | 51.34351 | -0.09177 | 34324 ft | 435 kts | 290° |
| 2026-04-26 12:47 | 51.36479 | -0.18257 | 34322 ft | 436 kts | 290° |
| 2026-04-26 12:47 | 51.38594 | -0.27316 | 34319 ft | 436 kts | 290° |
| 2026-04-26 12:48 | 51.40699 | -0.36373 | 34318 ft | 436 kts | 290° |
| 2026-04-26 12:48 | 51.42799 | -0.45443 | 34318 ft | 436 kts | 289° |
| 2026-04-26 12:49 | 51.44898 | -0.54555 | 34318 ft | 437 kts | 289° |
| 2026-04-26 12:49 | 51.46985 | -0.63645 | 34316 ft | 437 kts | 289° |
| 2026-04-26 12:50 | 51.49068 | -0.72765 | 34316 ft | 437 kts | 289° |
| 2026-04-26 12:50 | 51.51149 | -0.81907 | 34315 ft | 437 kts | 289° |
| 2026-04-26 12:51 | 51.53214 | -0.91021 | 34314 ft | 437 kts | 289° |
| 2026-04-26 12:51 | 51.55286 | -1.00204 | 34311 ft | 438 kts | 289° |
| 2026-04-26 12:52 | 51.57356 | -1.09422 | 34310 ft | 438 kts | 288° |
| 2026-04-26 12:52 | 51.59407 | -1.18595 | 34307 ft | 438 kts | 288° |
| 2026-04-26 12:53 | 51.61449 | -1.27766 | 34308 ft | 439 kts | 288° |
| 2026-04-26 12:53 | 51.63507 | -1.37051 | 34309 ft | 439 kts | 288° |
| 2026-04-26 12:54 | 51.65548 | -1.46297 | 34310 ft | 439 kts | 288° |
| 2026-04-26 12:54 | 51.67572 | -1.55515 | 34305 ft | 440 kts | 288° |
| 2026-04-26 12:55 | 51.69617 | -1.64788 | 34308 ft | 440 kts | 290° |
| 2026-04-26 12:55 | 51.72062 | -1.73847 | 34304 ft | 442 kts | 294° |
| 2026-04-26 12:56 | 51.74796 | -1.82693 | 34304 ft | 442 kts | 295° |
| 2026-04-26 12:56 | 51.77545 | -1.91551 | 34305 ft | 442 kts | 294° |
| 2026-04-26 12:57 | 51.80288 | -2.00404 | 34304 ft | 443 kts | 296° |
| 2026-04-26 12:57 | 51.83376 | -2.08989 | 34305 ft | 445 kts | 300° |
| 2026-04-26 12:58 | 51.88271 | -2.21710 | 34307 ft | 445 kts | 300° |
| 2026-04-26 12:58 | 51.91521 | -2.30184 | 34304 ft | 445 kts | 300° |
| 2026-04-26 12:59 | 51.94779 | -2.38712 | 34305 ft | 445 kts | 300° |
| 2026-04-26 12:59 | 51.98021 | -2.47231 | 34302 ft | 445 kts | 300° |
| 2026-04-26 13:00 | 52.01260 | -2.55773 | 34299 ft | 445 kts | 300° |
| 2026-04-26 13:00 | 52.04490 | -2.64318 | 34295 ft | 445 kts | 300° |
| 2026-04-26 13:01 | 52.07706 | -2.72857 | 34294 ft | 445 kts | 299° |
| 2026-04-26 13:01 | 52.10932 | -2.81449 | 34296 ft | 447 kts | 299° |
| 2026-04-26 13:02 | 52.12544 | -2.85752 | 34488 ft | 447 kts | 299° |
| 2026-04-26 13:02 | 52.14154 | -2.90061 | 34820 ft | 445 kts | 299° |
| 2026-04-26 13:02 | 52.15751 | -2.94338 | 35081 ft | 443 kts | 299° |
| 2026-04-26 13:02 | 52.17347 | -2.98624 | 35284 ft | 442 kts | 299° |
| 2026-04-26 13:03 | 52.18937 | -3.02898 | 35467 ft | 442 kts | 299° |
| 2026-04-26 13:03 | 52.20540 | -3.07210 | 35663 ft | 441 kts | 299° |
| 2026-04-26 13:03 | 52.22102 | -3.11425 | 35852 ft | 441 kts | 299° |
| 2026-04-26 13:03 | 52.23680 | -3.15692 | 36018 ft | 440 kts | 299° |
| 2026-04-26 13:04 | 52.25275 | -3.20007 | 36182 ft | 440 kts | 299° |
| 2026-04-26 13:04 | 52.26854 | -3.24287 | 36260 ft | 441 kts | 299° |